Terminal Aerodrome Forecast
Issued by NWS

Home | Current Version | Previous Version | Text Only | Print | Product List | Glossary Off
Versions: 1 2 3 4 5 6 7 8 9 10 11 12 13 14 15 16 17 18 19 20 21 22 23

000
FTUS42 KMHX 160532
TAFPGV
TAF
KPGV 160532Z 1606/1706 24012KT P6SM SCT250
     FM161300 24015G23KT P6SM SCT250
     FM161900 25015G23KT P6SM BKN090
     FM162300 32011KT P6SM OVC030
     FM170100 36009KT P6SM OVC025
      AMD LTD TO CLD VIS AND WIND=

USA.gov is the U.S. government's official web portal to all federal, state and local government web resources and services.